sensor_id;sensor_type;location;lat;lon;timestamp;pressure;altitude;pressure_sealevel;temperature
74449;BMP280;62878;51.026;4.472;2022-12-18T00:01:36;-5899.44;;;11.94
74449;BMP280;62878;51.026;4.472;2022-12-18T00:04:04;-5894.47;;;11.65
74449;BMP280;62878;51.026;4.472;2022-12-18T00:06:30;-5898.03;;;11.86
74449;BMP280;62878;51.026;4.472;2022-12-18T00:08:57;-5897.94;;;11.85
74449;BMP280;62878;51.026;4.472;2022-12-18T00:11:25;-5897.94;;;11.85
74449;BMP280;62878;51.026;4.472;2022-12-18T00:13:52;-5890.75;;;11.42
74449;BMP280;62878;51.026;4.472;2022-12-18T00:16:20;-5897.16;;;11.81
74449;BMP280;62878;51.026;4.472;2022-12-18T00:18:47;-5894.47;;;11.65
74449;BMP280;62878;51.026;4.472;2022-12-18T00:21:13;-5897.50;;;11.83
74449;BMP280;62878;51.026;4.472;2022-12-18T00:23:40;-5896.66;;;11.78
74449;BMP280;62878;51.026;4.472;2022-12-18T00:26:10;-5892.63;;;11.54
74449;BMP280;62878;51.026;4.472;2022-12-18T00:28:36;-5889.34;;;11.34
74449;BMP280;62878;51.026;4.472;2022-12-18T00:31:03;-5896.31;;;11.76
74449;BMP280;62878;51.026;4.472;2022-12-18T00:33:28;-5897.00;;;11.80
74449;BMP280;62878;51.026;4.472;2022-12-18T00:35:53;-5896.00;;;11.74
74449;BMP280;62878;51.026;4.472;2022-12-18T00:38:19;-5895.66;;;11.72
74449;BMP280;62878;51.026;4.472;2022-12-18T00:40:44;-5890.44;;;11.40
74449;BMP280;62878;51.026;4.472;2022-12-18T00:43:10;-5893.78;;;11.61
74449;BMP280;62878;51.026;4.472;2022-12-18T00:45:36;-5895.81;;;11.73
74449;BMP280;62878;51.026;4.472;2022-12-18T00:48:01;-5895.41;;;11.70
74449;BMP280;62878;51.026;4.472;2022-12-18T00:50:27;-5894.97;;;11.68
74449;BMP280;62878;51.026;4.472;2022-12-18T00:52:52;-5881.16;;;10.85
74449;BMP280;62878;51.026;4.472;2022-12-18T00:55:18;-5895.16;;;11.69
74449;BMP280;62878;51.026;4.472;2022-12-18T00:57:43;-5889.06;;;11.32
74449;BMP280;62878;51.026;4.472;2022-12-18T01:00:12;-5894.56;;;11.65
74449;BMP280;62878;51.026;4.472;2022-12-18T01:02:38;-5894.47;;;11.65
74449;BMP280;62878;51.026;4.472;2022-12-18T01:05:04;-5892.13;;;11.50
74449;BMP280;62878;51.026;4.472;2022-12-18T01:07:29;-5891.44;;;11.46
74449;BMP280;62878;51.026;4.472;2022-12-18T01:09:55;-5894.56;;;11.65
74449;BMP280;62878;51.026;4.472;2022-12-18T01:12:20;-5891.84;;;11.49
74449;BMP280;62878;51.026;4.472;2022-12-18T01:14:45;-5893.97;;;11.62
74449;BMP280;62878;51.026;4.472;2022-12-18T01:17:11;-5893.88;;;11.61
74449;BMP280;62878;51.026;4.472;2022-12-18T01:19:36;-5893.22;;;11.57
74449;BMP280;62878;51.026;4.472;2022-12-18T01:22:01;-5893.78;;;11.61
74449;BMP280;62878;51.026;4.472;2022-12-18T01:24:27;-5893.97;;;11.62
74449;BMP280;62878;51.026;4.472;2022-12-18T01:26:52;-5893.97;;;11.62
74449;BMP280;62878;51.026;4.472;2022-12-18T01:29:17;-5894.56;;;11.65
74449;BMP280;62878;51.026;4.472;2022-12-18T01:31:43;-5894.47;;;11.65
74449;BMP280;62878;51.026;4.472;2022-12-18T01:34:08;-5881.47;;;10.87
74449;BMP280;62878;51.026;4.472;2022-12-18T01:36:37;-5896.25;;;11.75
74449;BMP280;62878;51.026;4.472;2022-12-18T01:39:06;-5896.50;;;11.77
74449;BMP280;62878;51.026;4.472;2022-12-18T01:41:33;-5896.84;;;11.79
74449;BMP280;62878;51.026;4.472;2022-12-18T01:47:15;-5895.81;;;11.73
74449;BMP280;62878;51.026;4.472;2022-12-18T01:49:43;-5896.31;;;11.76
74449;BMP280;62878;51.026;4.472;2022-12-18T01:52:09;-5892.97;;;11.56
74449;BMP280;62878;51.026;4.472;2022-12-18T01:54:34;-5895.16;;;11.69
74449;BMP280;62878;51.026;4.472;2022-12-18T01:56:59;-5897.16;;;11.81
74449;BMP280;62878;51.026;4.472;2022-12-18T01:59:26;-5893.38;;;11.58
74449;BMP280;62878;51.026;4.472;2022-12-18T02:01:52;-5896.16;;;11.75
74449;BMP280;62878;51.026;4.472;2022-12-18T02:04:25;-5895.91;;;11.73
74449;BMP280;62878;51.026;4.472;2022-12-18T02:10:08;-5894.81;;;11.67
74449;BMP280;62878;51.026;4.472;2022-12-18T02:12:46;-5895.75;;;11.72
74449;BMP280;62878;51.026;4.472;2022-12-18T02:15:19;-5893.28;;;11.58
74449;BMP280;62878;51.026;4.472;2022-12-18T02:18:08;-5891.28;;;11.45
74449;BMP280;62878;51.026;4.472;2022-12-18T02:20:44;-5892.28;;;11.51
74449;BMP280;62878;51.026;4.472;2022-12-18T02:29:01;-5893.47;;;11.59
74449;BMP280;62878;51.026;4.472;2022-12-18T02:31:36;-5893.13;;;11.57
74449;BMP280;62878;51.026;4.472;2022-12-18T02:34:04;-5890.34;;;11.40
74449;BMP280;62878;51.026;4.472;2022-12-18T02:36:32;-5883.59;;;10.99
74449;BMP280;62878;51.026;4.472;2022-12-18T02:38:59;-5892.97;;;11.56
74449;BMP280;62878;51.026;4.472;2022-12-18T02:41:25;-5892.97;;;11.56
74449;BMP280;62878;51.026;4.472;2022-12-18T02:43:59;-5891.00;;;11.44
74449;BMP280;62878;51.026;4.472;2022-12-18T02:46:26;-5891.59;;;11.47
74449;BMP280;62878;51.026;4.472;2022-12-18T02:49:00;-5892.03;;;11.50
74449;BMP280;62878;51.026;4.472;2022-12-18T02:51:36;-5891.94;;;11.49
74449;BMP280;62878;51.026;4.472;2022-12-18T02:54:10;-5885.13;;;11.09
74449;BMP280;62878;51.026;4.472;2022-12-18T02:56:44;-5891.78;;;11.48
74449;BMP280;62878;51.026;4.472;2022-12-18T02:59:18;-5890.75;;;11.42
74449;BMP280;62878;51.026;4.472;2022-12-18T03:01:51;-5889.91;;;11.37
74449;BMP280;62878;51.026;4.472;2022-12-18T03:04:28;-5883.34;;;10.98
74449;BMP280;62878;51.026;4.472;2022-12-18T03:06:58;-5890.34;;;11.40
74449;BMP280;62878;51.026;4.472;2022-12-18T03:09:32;-5890.59;;;11.41
74449;BMP280;62878;51.026;4.472;2022-12-18T03:12:31;-5887.66;;;11.24
74449;BMP280;62878;51.026;4.472;2022-12-18T03:15:10;-5889.34;;;11.34
74449;BMP280;62878;51.026;4.472;2022-12-18T03:17:41;-5888.47;;;11.29
74449;BMP280;62878;51.026;4.472;2022-12-18T03:20:13;-5889.06;;;11.32
74449;BMP280;62878;51.026;4.472;2022-12-18T03:22:41;-5888.91;;;11.31
74449;BMP280;62878;51.026;4.472;2022-12-18T03:25:11;-5889.75;;;11.36
74449;BMP280;62878;51.026;4.472;2022-12-18T03:27:40;-5887.22;;;11.21
74449;BMP280;62878;51.026;4.472;2022-12-18T03:30:12;-5887.72;;;11.24
74449;BMP280;62878;51.026;4.472;2022-12-18T03:35:07;-5882.00;;;10.90
74449;BMP280;62878;51.026;4.472;2022-12-18T03:37:34;-5887.91;;;11.25
74449;BMP280;62878;51.026;4.472;2022-12-18T03:40:00;-5881.31;;;10.86
74449;BMP280;62878;51.026;4.472;2022-12-18T03:47:31;-5886.72;;;11.18
74449;BMP280;62878;51.026;4.472;2022-12-18T03:50:17;-5887.22;;;11.21
74449;BMP280;62878;51.026;4.472;2022-12-18T03:52:52;-5886.38;;;11.16
74449;BMP280;62878;51.026;4.472;2022-12-18T03:55:20;-5885.69;;;11.12
74449;BMP280;62878;51.026;4.472;2022-12-18T03:57:48;-5883.84;;;11.01
74449;BMP280;62878;51.026;4.472;2022-12-18T04:00:15;-5886.22;;;11.15
74449;BMP280;62878;51.026;4.472;2022-12-18T04:02:48;-5885.88;;;11.13
74449;BMP280;62878;51.026;4.472;2022-12-18T04:05:17;-5885.44;;;11.11
74449;BMP280;62878;51.026;4.472;2022-12-18T04:07:45;-5883.00;;;10.96
74449;BMP280;62878;51.026;4.472;2022-12-18T04:10:12;-5885.53;;;11.11
74449;BMP280;62878;51.026;4.472;2022-12-18T04:12:38;-5882.25;;;10.91
74449;BMP280;62878;51.026;4.472;2022-12-18T04:15:04;-5884.19;;;11.03
74449;BMP280;62878;51.026;4.472;2022-12-18T04:17:30;-5884.28;;;11.03
74449;BMP280;62878;51.026;4.472;2022-12-18T04:19:55;-5883.25;;;10.97
74449;BMP280;62878;51.026;4.472;2022-12-18T04:22:21;-5881.91;;;10.89
74449;BMP280;62878;51.026;4.472;2022-12-18T04:24:46;-5881.31;;;10.86
74449;BMP280;62878;51.026;4.472;2022-12-18T04:27:11;-5883.69;;;11.00
74449;BMP280;62878;51.026;4.472;2022-12-18T04:29:37;-5883.41;;;10.98
74449;BMP280;62878;51.026;4.472;2022-12-18T04:32:03;-5883.34;;;10.98
74449;BMP280;62878;51.026;4.472;2022-12-18T04:34:28;-5881.31;;;10.86
74449;BMP280;62878;51.026;4.472;2022-12-18T04:36:53;-5883.16;;;10.97
74449;BMP280;62878;51.026;4.472;2022-12-18T04:39:18;-5872.47;;;10.33
74449;BMP280;62878;51.026;4.472;2022-12-18T04:41:44;-5880.56;;;10.81
74449;BMP280;62878;51.026;4.472;2022-12-18T04:44:10;-5882.50;;;10.93
74449;BMP280;62878;51.026;4.472;2022-12-18T04:46:35;-5881.47;;;10.87
74449;BMP280;62878;51.026;4.472;2022-12-18T04:49:00;-5880.38;;;10.80
74449;BMP280;62878;51.026;4.472;2022-12-18T04:51:26;-5877.34;;;10.62
74449;BMP280;62878;51.026;4.472;2022-12-18T04:53:51;-5879.97;;;10.78
74449;BMP280;62878;51.026;4.472;2022-12-18T04:56:17;-5876.94;;;10.59
74449;BMP280;62878;51.026;4.472;2022-12-18T04:58:44;-5880.81;;;10.83
74449;BMP280;62878;51.026;4.472;2022-12-18T05:01:11;-5880.97;;;10.84
74449;BMP280;62878;51.026;4.472;2022-12-18T05:03:38;-5877.94;;;10.66
74449;BMP280;62878;51.026;4.472;2022-12-18T05:06:05;-5880.47;;;10.81
74449;BMP280;62878;51.026;4.472;2022-12-18T05:08:30;-5879.03;;;10.72
74449;BMP280;62878;51.026;4.472;2022-12-18T05:11:08;-5878.63;;;10.70
74449;BMP280;62878;51.026;4.472;2022-12-18T05:13:35;-5879.97;;;10.78
74449;BMP280;62878;51.026;4.472;2022-12-18T05:16:00;-5879.22;;;10.73
74449;BMP280;62878;51.026;4.472;2022-12-18T05:18:26;-5879.97;;;10.78
74449;BMP280;62878;51.026;4.472;2022-12-18T05:20:51;-5879.38;;;10.74
74449;BMP280;62878;51.026;4.472;2022-12-18T05:23:18;-5879.13;;;10.73
74449;BMP280;62878;51.026;4.472;2022-12-18T05:25:59;-5872.72;;;10.34
74449;BMP280;62878;51.026;4.472;2022-12-18T05:28:26;-5877.19;;;10.61
74449;BMP280;62878;51.026;4.472;2022-12-18T05:30:55;-5878.28;;;10.68
74449;BMP280;62878;51.026;4.472;2022-12-18T05:33:22;-5878.88;;;10.71
74449;BMP280;62878;51.026;4.472;2022-12-18T05:35:52;-5876.09;;;10.54
74449;BMP280;62878;51.026;4.472;2022-12-18T05:38:19;-5878.44;;;10.69
74449;BMP280;62878;51.026;4.472;2022-12-18T05:40:44;-5869.50;;;10.15
74449;BMP280;62878;51.026;4.472;2022-12-18T05:43:10;-5879.28;;;10.74
74449;BMP280;62878;51.026;4.472;2022-12-18T05:45:39;-5877.88;;;10.65
74449;BMP280;62878;51.026;4.472;2022-12-18T05:48:04;-5878.03;;;10.66
74449;BMP280;62878;51.026;4.472;2022-12-18T05:50:30;-5874.31;;;10.44
74449;BMP280;62878;51.026;4.472;2022-12-18T05:52:55;-5874.22;;;10.43
74449;BMP280;62878;51.026;4.472;2022-12-18T05:55:21;-5877.69;;;10.64
74449;BMP280;62878;51.026;4.472;2022-12-18T05:57:46;-5869.84;;;10.17
74449;BMP280;62878;51.026;4.472;2022-12-18T06:00:12;-5876.59;;;10.57
74449;BMP280;62878;51.026;4.472;2022-12-18T06:02:38;-5873.72;;;10.40
74449;BMP280;62878;51.026;4.472;2022-12-18T06:05:03;-5871.19;;;10.25
74449;BMP280;62878;51.026;4.472;2022-12-18T06:07:29;-5876.25;;;10.55
74449;BMP280;62878;51.026;4.472;2022-12-18T06:09:54;-5873.56;;;10.39
74449;BMP280;62878;51.026;4.472;2022-12-18T06:12:19;-5876.94;;;10.59
74449;BMP280;62878;51.026;4.472;2022-12-18T06:14:44;-5876.16;;;10.55
74449;BMP280;62878;51.026;4.472;2022-12-18T06:17:10;-5868.84;;;10.11
74449;BMP280;62878;51.026;4.472;2022-12-18T06:19:35;-5870.00;;;10.18
74449;BMP280;62878;51.026;4.472;2022-12-18T06:22:01;-5876.25;;;10.55
74449;BMP280;62878;51.026;4.472;2022-12-18T06:24:26;-5873.97;;;10.42
74449;BMP280;62878;51.026;4.472;2022-12-18T06:26:51;-5876.09;;;10.54
74449;BMP280;62878;51.026;4.472;2022-12-18T06:29:16;-5873.38;;;10.38
74449;BMP280;62878;51.026;4.472;2022-12-18T06:31:42;-5869.69;;;10.16
74449;BMP280;62878;51.026;4.472;2022-12-18T06:34:07;-5869.50;;;10.15
74449;BMP280;62878;51.026;4.472;2022-12-18T06:36:32;-5867.75;;;10.04
74449;BMP280;62878;51.026;4.472;2022-12-18T06:38:59;-5875.75;;;10.52
74449;BMP280;62878;51.026;4.472;2022-12-18T06:41:25;-5875.59;;;10.51
74449;BMP280;62878;51.026;4.472;2022-12-18T06:43:50;-5868.56;;;10.09
74449;BMP280;62878;51.026;4.472;2022-12-18T06:46:15;-5871.94;;;10.30
74449;BMP280;62878;51.026;4.472;2022-12-18T06:48:41;-5872.13;;;10.31
74449;BMP280;62878;51.026;4.472;2022-12-18T06:51:06;-5873.38;;;10.38
74449;BMP280;62878;51.026;4.472;2022-12-18T06:53:32;-5874.66;;;10.46
74449;BMP280;62878;51.026;4.472;2022-12-18T06:56:06;-5875.06;;;10.48
74449;BMP280;62878;51.026;4.472;2022-12-18T06:58:32;-5872.97;;;10.36
74449;BMP280;62878;51.026;4.472;2022-12-18T07:01:01;-5867.31;;;10.02
74449;BMP280;62878;51.026;4.472;2022-12-18T07:03:27;-5873.97;;;10.42
74449;BMP280;62878;51.026;4.472;2022-12-18T07:05:52;-5873.56;;;10.39
74449;BMP280;62878;51.026;4.472;2022-12-18T07:08:17;-5871.03;;;10.24
74449;BMP280;62878;51.026;4.472;2022-12-18T07:10:43;-5872.97;;;10.36
74449;BMP280;62878;51.026;4.472;2022-12-18T07:13:09;-5872.53;;;10.33
74449;BMP280;62878;51.026;4.472;2022-12-18T07:15:35;-5870.19;;;10.19
74449;BMP280;62878;51.026;4.472;2022-12-18T07:18:00;-5858.53;;;9.49
74449;BMP280;62878;51.026;4.472;2022-12-18T07:20:26;-5871.19;;;10.25
74449;BMP280;62878;51.026;4.472;2022-12-18T07:22:51;-5868.66;;;10.10
74449;BMP280;62878;51.026;4.472;2022-12-18T07:25:17;-5866.13;;;9.95
74449;BMP280;62878;51.026;4.472;2022-12-18T07:27:42;-5863.44;;;9.79
74449;BMP280;62878;51.026;4.472;2022-12-18T07:30:08;-5872.72;;;10.34
74449;BMP280;62878;51.026;4.472;2022-12-18T07:32:34;-5872.53;;;10.33
74449;BMP280;62878;51.026;4.472;2022-12-18T07:34:59;-5871.69;;;10.28
74449;BMP280;62878;51.026;4.472;2022-12-18T07:37:25;-5871.88;;;10.29
74449;BMP280;62878;51.026;4.472;2022-12-18T07:39:50;-5871.38;;;10.26
74449;BMP280;62878;51.026;4.472;2022-12-18T07:42:15;-5865.28;;;9.90
74449;BMP280;62878;51.026;4.472;2022-12-18T07:44:56;-5868.31;;;10.08
74449;BMP280;62878;51.026;4.472;2022-12-18T07:47:22;-5862.75;;;9.75
74449;BMP280;62878;51.026;4.472;2022-12-18T07:49:47;-5871.38;;;10.26
74449;BMP280;62878;51.026;4.472;2022-12-18T07:52:12;-5871.88;;;10.29
74449;BMP280;62878;51.026;4.472;2022-12-18T07:54:38;-5866.81;;;9.99
74449;BMP280;62878;51.026;4.472;2022-12-18T07:57:04;-5870.59;;;10.22
74449;BMP280;62878;51.026;4.472;2022-12-18T07:59:30;-5870.53;;;10.21
74449;BMP280;62878;51.026;4.472;2022-12-18T08:01:55;-5867.75;;;10.04
74449;BMP280;62878;51.026;4.472;2022-12-18T08:04:20;-5870.69;;;10.22
74449;BMP280;62878;51.026;4.472;2022-12-18T08:06:46;-5870.00;;;10.18
74449;BMP280;62878;51.026;4.472;2022-12-18T08:09:11;-5869.50;;;10.15
74449;BMP280;62878;51.026;4.472;2022-12-18T08:11:36;-5866.88;;;9.99
74449;BMP280;62878;51.026;4.472;2022-12-18T08:14:02;-5862.66;;;9.74
74449;BMP280;62878;51.026;4.472;2022-12-18T08:16:27;-5865.97;;;9.94
74449;BMP280;62878;51.026;4.472;2022-12-18T08:18:53;-5869.09;;;10.12
74449;BMP280;62878;51.026;4.472;2022-12-18T08:21:27;-5865.47;;;9.91
74449;BMP280;62878;51.026;4.472;2022-12-18T08:23:55;-5869.69;;;10.16
74449;BMP280;62878;51.026;4.472;2022-12-18T08:26:21;-5865.63;;;9.92
74449;BMP280;62878;51.026;4.472;2022-12-18T08:28:48;-5868.16;;;10.07
74449;BMP280;62878;51.026;4.472;2022-12-18T08:31:13;-5869.00;;;10.12
74449;BMP280;62878;51.026;4.472;2022-12-18T08:33:39;-5863.50;;;9.79
74449;BMP280;62878;51.026;4.472;2022-12-18T08:36:05;-5862.75;;;9.75
74449;BMP280;62878;51.026;4.472;2022-12-18T08:38:32;-5868.75;;;10.10
74449;BMP280;62878;51.026;4.472;2022-12-18T08:41:10;-5824.78;;;7.47
74449;BMP280;62878;51.026;4.472;2022-12-18T08:43:36;-5806.94;;;6.40
74449;BMP280;62878;51.026;4.472;2022-12-18T08:46:21;-5827.38;;;7.63
74449;BMP280;62878;51.026;4.472;2022-12-18T08:48:47;-5836.75;;;8.19
74449;BMP280;62878;51.026;4.472;2022-12-18T08:51:13;-5839.22;;;8.33
74449;BMP280;62878;51.026;4.472;2022-12-18T08:53:40;-5850.78;;;9.03
74449;BMP280;62878;51.026;4.472;2022-12-18T08:56:05;-5859.97;;;9.58
74449;BMP280;62878;51.026;4.472;2022-12-18T08:58:31;-5858.72;;;9.50
74449;BMP280;62878;51.026;4.472;2022-12-18T09:01:04;-5869.16;;;10.13
74449;BMP280;62878;51.026;4.472;2022-12-18T09:03:30;-5871.63;;;10.28
74449;BMP280;62878;51.026;4.472;2022-12-18T09:05:55;-5874.56;;;10.45
74449;BMP280;62878;51.026;4.472;2022-12-18T09:08:21;-5876.59;;;10.57
74449;BMP280;62878;51.026;4.472;2022-12-18T09:10:48;-5878.28;;;10.68
74449;BMP280;62878;51.026;4.472;2022-12-18T09:13:14;-5875.59;;;10.51
74449;BMP280;62878;51.026;4.472;2022-12-18T09:15:51;-5879.13;;;10.73
74449;BMP280;62878;51.026;4.472;2022-12-18T09:18:19;-5881.47;;;10.87
74449;BMP280;62878;51.026;4.472;2022-12-18T09:20:44;-5882.66;;;10.94
74449;BMP280;62878;51.026;4.472;2022-12-18T09:23:11;-5880.47;;;10.81
74449;BMP280;62878;51.026;4.472;2022-12-18T09:25:37;-5883.09;;;10.96
74449;BMP280;62878;51.026;4.472;2022-12-18T09:28:10;-5884.09;;;11.02
74449;BMP280;62878;51.026;4.472;2022-12-18T09:30:40;-5884.53;;;11.05
74449;BMP280;62878;51.026;4.472;2022-12-18T09:33:06;-5884.78;;;11.06
74449;BMP280;62878;51.026;4.472;2022-12-18T09:35:31;-5885.88;;;11.13
74449;BMP280;62878;51.026;4.472;2022-12-18T09:37:58;-5883.69;;;11.00
74449;BMP280;62878;51.026;4.472;2022-12-18T09:40:25;-5885.38;;;11.10
74449;BMP280;62878;51.026;4.472;2022-12-18T09:42:56;-5885.03;;;11.08
74449;BMP280;62878;51.026;4.472;2022-12-18T09:45:23;-5885.63;;;11.12
74449;BMP280;62878;51.026;4.472;2022-12-18T09:47:50;-5884.28;;;11.03
74449;BMP280;62878;51.026;4.472;2022-12-18T09:50:33;-5887.66;;;11.24
74449;BMP280;62878;51.026;4.472;2022-12-18T09:53:04;-5886.22;;;11.15
74449;BMP280;62878;51.026;4.472;2022-12-18T09:55:41;-5885.44;;;11.11
74449;BMP280;62878;51.026;4.472;2022-12-18T09:58:16;-5886.38;;;11.16
74449;BMP280;62878;51.026;4.472;2022-12-18T10:00:43;-5885.38;;;11.10
74449;BMP280;62878;51.026;4.472;2022-12-18T10:03:10;-5885.38;;;11.10
74449;BMP280;62878;51.026;4.472;2022-12-18T10:06:01;-5888.66;;;11.30
74449;BMP280;62878;51.026;4.472;2022-12-18T10:08:49;-5888.47;;;11.29
74449;BMP280;62878;51.026;4.472;2022-12-18T10:17:35;-5888.06;;;11.26
74449;BMP280;62878;51.026;4.472;2022-12-18T10:20:10;-5887.91;;;11.25
74449;BMP280;62878;51.026;4.472;2022-12-18T10:25:50;-5886.88;;;11.19
74449;BMP280;62878;51.026;4.472;2022-12-18T10:28:18;-5885.69;;;11.12
74449;BMP280;62878;51.026;4.472;2022-12-18T10:30:44;-5879.47;;;10.75
74449;BMP280;62878;51.026;4.472;2022-12-18T10:33:12;-5889.00;;;11.32
74449;BMP280;62878;51.026;4.472;2022-12-18T10:35:41;-5889.59;;;11.35
74449;BMP280;62878;51.026;4.472;2022-12-18T10:43:14;-5889.25;;;11.33
74449;BMP280;62878;51.026;4.472;2022-12-18T10:45:41;-5888.41;;;11.28
74449;BMP280;62878;51.026;4.472;2022-12-18T10:48:19;-5884.59;;;11.05
74449;BMP280;62878;51.026;4.472;2022-12-18T10:50:48;-5884.19;;;11.03
74449;BMP280;62878;51.026;4.472;2022-12-18T10:53:20;-5886.97;;;11.20
74449;BMP280;62878;51.026;4.472;2022-12-18T10:55:46;-5887.72;;;11.24
74449;BMP280;62878;51.026;4.472;2022-12-18T10:58:35;-5887.56;;;11.23
74449;BMP280;62878;51.026;4.472;2022-12-18T11:03:44;-5887.47;;;11.23
74449;BMP280;62878;51.026;4.472;2022-12-18T11:06:17;-5886.53;;;11.17
74449;BMP280;62878;51.026;4.472;2022-12-18T11:08:56;-5883.69;;;11.00
74449;BMP280;62878;51.026;4.472;2022-12-18T11:11:23;-5886.22;;;11.15
74449;BMP280;62878;51.026;4.472;2022-12-18T11:13:57;-5886.38;;;11.16
74449;BMP280;62878;51.026;4.472;2022-12-18T11:16:24;-5877.28;;;10.62
74449;BMP280;62878;51.026;4.472;2022-12-18T11:18:49;-5885.44;;;11.11
74449;BMP280;62878;51.026;4.472;2022-12-18T11:21:15;-5885.44;;;11.11
74449;BMP280;62878;51.026;4.472;2022-12-18T11:23:50;-5882.16;;;10.91
74449;BMP280;62878;51.026;4.472;2022-12-18T11:26:16;-5881.81;;;10.89
74449;BMP280;62878;51.026;4.472;2022-12-18T11:28:52;-5885.88;;;11.13
74449;BMP280;62878;51.026;4.472;2022-12-18T11:31:27;-5886.03;;;11.14
74449;BMP280;62878;51.026;4.472;2022-12-18T11:34:12;-5882.25;;;10.91
74449;BMP280;62878;51.026;4.472;2022-12-18T11:36:42;-5883.84;;;11.01
74449;BMP280;62878;51.026;4.472;2022-12-18T11:39:18;-5883.41;;;10.98
74449;BMP280;62878;51.026;4.472;2022-12-18T11:41:59;-5884.53;;;11.05
74449;BMP280;62878;51.026;4.472;2022-12-18T11:44:55;-5878.13;;;10.67
74449;BMP280;62878;51.026;4.472;2022-12-18T11:47:39;-5884.28;;;11.03
74449;BMP280;62878;51.026;4.472;2022-12-18T11:50:17;-5884.28;;;11.03
74449;BMP280;62878;51.026;4.472;2022-12-18T11:52:44;-5875.41;;;10.50
74449;BMP280;62878;51.026;4.472;2022-12-18T11:55:32;-5882.16;;;10.91
74449;BMP280;62878;51.026;4.472;2022-12-18T12:00:50;-5885.78;;;11.13
74449;BMP280;62878;51.026;4.472;2022-12-18T12:20:52;-5889.06;;;11.32
74449;BMP280;62878;51.026;4.472;2022-12-18T12:26:33;-5889.16;;;11.33
74449;BMP280;62878;51.026;4.472;2022-12-18T12:37:10;-5888.91;;;11.31
74449;BMP280;62878;51.026;4.472;2022-12-18T12:39:42;-5873.56;;;10.39
74449;BMP280;62878;51.026;4.472;2022-12-18T12:42:26;-5876.75;;;10.58
74449;BMP280;62878;51.026;4.472;2022-12-18T12:45:20;-5890.75;;;11.42
74449;BMP280;62878;51.026;4.472;2022-12-18T12:47:48;-5891.94;;;11.49
74449;BMP280;62878;51.026;4.472;2022-12-18T12:50:17;-5890.94;;;11.43
74449;BMP280;62878;51.026;4.472;2022-12-18T12:52:47;-5889.50;;;11.35
74449;BMP280;62878;51.026;4.472;2022-12-18T12:55:22;-5891.53;;;11.47
74449;BMP280;62878;51.026;4.472;2022-12-18T12:57:59;-5892.19;;;11.51
74449;BMP280;62878;51.026;4.472;2022-12-18T13:00:36;-5893.63;;;11.60
74449;BMP280;62878;51.026;4.472;2022-12-18T13:06:00;-5891.94;;;11.49
74449;BMP280;62878;51.026;4.472;2022-12-18T13:08:34;-5892.88;;;11.55
74449;BMP280;62878;51.026;4.472;2022-12-18T13:11:30;-5891.84;;;11.49
74449;BMP280;62878;51.026;4.472;2022-12-18T13:17:17;-5893.63;;;11.60
74449;BMP280;62878;51.026;4.472;2022-12-18T13:19:51;-5893.63;;;11.60
74449;BMP280;62878;51.026;4.472;2022-12-18T13:22:28;-5894.66;;;11.66
74449;BMP280;62878;51.026;4.472;2022-12-18T13:24:55;-5889.84;;;11.37
74449;BMP280;62878;51.026;4.472;2022-12-18T13:33:30;-5893.78;;;11.61
74449;BMP280;62878;51.026;4.472;2022-12-18T13:38:43;-5883.41;;;10.98
74449;BMP280;62878;51.026;4.472;2022-12-18T13:43:46;-5889.75;;;11.36
74449;BMP280;62878;51.026;4.472;2022-12-18T13:49:00;-5891.59;;;11.47
74449;BMP280;62878;51.026;4.472;2022-12-18T13:51:27;-5867.16;;;10.01
74449;BMP280;62878;51.026;4.472;2022-12-18T13:54:00;-5854.50;;;9.25
74449;BMP280;62878;51.026;4.472;2022-12-18T13:56:31;-5857.28;;;9.42
74449;BMP280;62878;51.026;4.472;2022-12-18T13:59:33;-5872.88;;;10.35
74449;BMP280;62878;51.026;4.472;2022-12-18T14:02:01;-5878.03;;;10.66
74449;BMP280;62878;51.026;4.472;2022-12-18T14:04:34;-5880.56;;;10.81
74449;BMP280;62878;51.026;4.472;2022-12-18T14:07:07;-5887.06;;;11.20
74449;BMP280;62878;51.026;4.472;2022-12-18T14:09:37;-5885.53;;;11.11
74449;BMP280;62878;51.026;4.472;2022-12-18T14:12:05;-5891.78;;;11.48
74449;BMP280;62878;51.026;4.472;2022-12-18T14:14:50;-5893.22;;;11.57
74449;BMP280;62878;51.026;4.472;2022-12-18T14:17:17;-5891.00;;;11.44
74449;BMP280;62878;51.026;4.472;2022-12-18T14:19:48;-5898.03;;;11.86
74449;BMP280;62878;51.026;4.472;2022-12-18T14:22:19;-5890.50;;;11.41
74449;BMP280;62878;51.026;4.472;2022-12-18T14:24:46;-5899.69;;;11.96
74449;BMP280;62878;51.026;4.472;2022-12-18T14:27:20;-5900.22;;;11.99
74449;BMP280;62878;51.026;4.472;2022-12-18T14:29:46;-5901.88;;;12.09
74449;BMP280;62878;51.026;4.472;2022-12-18T14:32:18;-5903.06;;;12.16
74449;BMP280;62878;51.026;4.472;2022-12-18T14:34:52;-5902.75;;;12.14
74449;BMP280;62878;51.026;4.472;2022-12-18T14:37:24;-5903.06;;;12.16
74449;BMP280;62878;51.026;4.472;2022-12-18T14:39:57;-5898.34;;;11.88
74449;BMP280;62878;51.026;4.472;2022-12-18T14:42:25;-5904.75;;;12.26
74449;BMP280;62878;51.026;4.472;2022-12-18T14:47:56;-5905.59;;;12.31
74449;BMP280;62878;51.026;4.472;2022-12-18T14:50:22;-5905.25;;;12.29
74449;BMP280;62878;51.026;4.472;2022-12-18T14:52:47;-5903.31;;;12.18
74449;BMP280;62878;51.026;4.472;2022-12-18T14:55:18;-5908.22;;;12.47
74449;BMP280;62878;51.026;4.472;2022-12-18T14:57:44;-5905.09;;;12.28
74449;BMP280;62878;51.026;4.472;2022-12-18T15:00:19;-5901.47;;;12.07
74449;BMP280;62878;51.026;4.472;2022-12-18T15:02:47;-5906.44;;;12.36
74449;BMP280;62878;51.026;4.472;2022-12-18T15:07:41;-5910.16;;;12.59
74449;BMP280;62878;51.026;4.472;2022-12-18T15:10:18;-5908.72;;;12.50
74449;BMP280;62878;51.026;4.472;2022-12-18T15:15:46;-5908.81;;;12.51
74449;BMP280;62878;51.026;4.472;2022-12-18T15:18:14;-5908.63;;;12.50
74449;BMP280;62878;51.026;4.472;2022-12-18T15:23:17;-5909.81;;;12.57
74449;BMP280;62878;51.026;4.472;2022-12-18T15:25:43;-5906.09;;;12.34
74449;BMP280;62878;51.026;4.472;2022-12-18T15:28:23;-5910.00;;;12.58
74449;BMP280;62878;51.026;4.472;2022-12-18T15:31:04;-5911.75;;;12.68
74449;BMP280;62878;51.026;4.472;2022-12-18T15:33:32;-5910.16;;;12.59
74449;BMP280;62878;51.026;4.472;2022-12-18T15:36:08;-5905.59;;;12.31
74449;BMP280;62878;51.026;4.472;2022-12-18T15:38:34;-5911.09;;;12.64
74449;BMP280;62878;51.026;4.472;2022-12-18T15:41:00;-5910.56;;;12.61
74449;BMP280;62878;51.026;4.472;2022-12-18T15:43:27;-5910.41;;;12.60
74449;BMP280;62878;51.026;4.472;2022-12-18T15:45:58;-5910.84;;;12.63
74449;BMP280;62878;51.026;4.472;2022-12-18T15:48:24;-5906.34;;;12.36
74449;BMP280;62878;51.026;4.472;2022-12-18T15:50:50;-5906.19;;;12.35
74449;BMP280;62878;51.026;4.472;2022-12-18T15:53:17;-5910.50;;;12.61
74449;BMP280;62878;51.026;4.472;2022-12-18T15:55:42;-5910.25;;;12.59
74449;BMP280;62878;51.026;4.472;2022-12-18T15:58:26;-5910.00;;;12.58
74449;BMP280;62878;51.026;4.472;2022-12-18T16:00:52;-5909.16;;;12.53